Time;durP1;ratioP1;P1;durP2;ratioP2;P2;SDS_P1;SDS_P2;PMS_P1;PMS_P2;Temp;Humidity;BMP_temperature;BMP_pressure;BME280_temperature;BME280_humidity;BME280_pressure;Samples;Min_cycle;Max_cycle;Signal;HPM_P1;HPM_P2
2022/09/19 00:00:09;;;;;;;;;;;;;;;12.88;48.65;100747.84;5006375;28;19937;-92
2022/09/19 00:02:37;;;;;;;;;;;;;;;12.85;48.85;100743.63;5014444;28;19924;-93
2022/09/19 00:05:03;;;;;;;;;;;;;;;12.87;48.93;100749.66;4996072;28;19917;-91
2022/09/19 00:07:42;;;;;;;;;;;;;;;12.84;48.86;100752.72;4979953;28;19931;-90
2022/09/19 00:10:13;;;;;;;;;;;;;;;12.84;49.00;100755.41;5015527;28;20338;-92
2022/09/19 00:12:46;;;;;;;;;;;;;;;12.84;48.81;100750.03;4997580;28;19925;-91
2022/09/19 00:15:16;;;;;;;;;;;;;;;12.80;49.31;100751.38;4999911;28;20405;-92
2022/09/19 00:17:55;;;;;;;;;;;;;;;12.81;49.27;100766.56;5015661;28;19918;-91
2022/09/19 00:20:26;;;;;;;;;;;;;;;12.85;49.14;100759.81;4998771;28;19918;-92
2022/09/19 00:25:38;;;;;;;;;;;;;;;12.85;49.50;100761.66;5022976;28;19923;-94
2022/09/19 00:28:10;;;;;;;;;;;;;;;12.87;49.01;100770.41;5027460;28;19917;-92
2022/09/19 00:30:39;;;;;;;;;;;;;;;12.83;49.35;100767.25;5007389;28;19936;-91
2022/09/19 00:33:08;;;;;;;;;;;;;;;12.86;49.60;100769.59;5014121;28;19944;-90
2022/09/19 00:35:41;;;;;;;;;;;;;;;12.85;49.64;100776.00;4996669;28;19937;-93
2022/09/19 00:38:06;;;;;;;;;;;;;;;12.87;49.67;100773.94;5018508;28;19955;-91
2022/09/19 00:40:35;;;;;;;;;;;;;;;12.86;49.79;100774.97;5004957;28;20025;-90
2022/09/19 00:43:05;;;;;;;;;;;;;;;12.80;50.93;100775.66;5004971;28;19925;-91
2022/09/19 00:45:34;;;;;;;;;;;;;;;12.89;49.46;100782.72;5006188;28;19910;-91
2022/09/19 00:48:03;;;;;;;;;;;;;;;12.86;49.24;100784.94;4994408;28;19922;-90
2022/09/19 00:50:54;;;;;;;;;;;;;;;12.85;49.87;100791.34;5010456;28;19956;-94
2022/09/19 00:53:43;;;;;;;;;;;;;;;12.83;49.49;100790.66;5002374;28;20004;-94
2022/09/19 00:56:09;;;;;;;;;;;;;;;12.82;49.49;100792.53;5012160;28;20425;-93
2022/09/19 00:58:58;;;;;;;;;;;;;;;12.82;49.93;100792.53;5011283;28;19917;-90
2022/09/19 01:01:26;;;;;;;;;;;;;;;12.75;49.94;100794.22;5022628;28;19924;-93
2022/09/19 01:03:53;;;;;;;;;;;;;;;12.75;49.99;100788.84;4996803;28;19921;-92
2022/09/19 01:06:21;;;;;;;;;;;;;;;12.71;50.23;100789.34;5037159;28;19947;-90
2022/09/19 01:09:24;;;;;;;;;;;;;;;12.70;50.79;100785.81;5029385;28;19913;-91
2022/09/19 01:12:13;;;;;;;;;;;;;;;12.74;50.43;100776.38;4988371;28;19905;-93
2022/09/19 01:15:28;;;;;;;;;;;;;;;12.63;51.44;100774.03;5033125;28;19909;-93
2022/09/19 01:18:07;;;;;;;;;;;;;;;12.54;50.70;100765.09;5010257;28;19927;-91
2022/09/19 01:24:04;;;;;;;;;;;;;;;12.50;51.14;100769.16;5028178;28;19925;-94
2022/09/19 01:27:00;;;;;;;;;;;;;;;12.38;51.28;100763.25;4951614;28;19985;-94
2022/09/19 01:30:03;;;;;;;;;;;;;;;12.37;52.34;100766.16;5026558;28;20382;-92
2022/09/19 01:32:34;;;;;;;;;;;;;;;12.38;51.06;100768.66;5002831;28;19929;-93
2022/09/19 01:35:05;;;;;;;;;;;;;;;12.28;52.12;100778.78;5015527;28;19924;-90
2022/09/19 01:37:35;;;;;;;;;;;;;;;12.32;51.44;100777.44;4986253;28;19914;-91
2022/09/19 01:40:14;;;;;;;;;;;;;;;12.39;51.19;100778.44;5001798;28;19921;-93
2022/09/19 01:43:05;;;;;;;;;;;;;;;12.30;51.40;100782.16;5014333;28;20001;-94
2022/09/19 01:45:39;;;;;;;;;;;;;;;12.32;51.62;100790.91;4991526;28;19972;-91
2022/09/19 01:48:32;;;;;;;;;;;;;;;12.32;52.39;100787.38;5009099;28;19935;-94
2022/09/19 01:51:17;;;;;;;;;;;;;;;12.21;53.05;100794.78;4957610;28;19996;-92
2022/09/19 01:54:23;;;;;;;;;;;;;;;12.28;52.85;100794.97;5016847;28;19914;-92
2022/09/19 01:56:51;;;;;;;;;;;;;;;12.16;52.79;100799.00;5006813;28;20022;-93
2022/09/19 02:02:44;;;;;;;;;;;;;;;12.03;52.67;100789.56;4951141;28;20390;-94
2022/09/19 02:05:33;;;;;;;;;;;;;;;11.97;52.76;100794.78;4952462;28;19918;-91
2022/09/19 02:08:09;;;;;;;;;;;;;;;11.99;52.66;100808.94;4946383;28;20377;-92
2022/09/19 02:10:49;;;;;;;;;;;;;;;11.93;52.79;100812.28;4974581;28;19922;-92
2022/09/19 02:13:35;;;;;;;;;;;;;;;11.89;52.78;100809.06;5012092;28;19918;-92
2022/09/19 02:16:05;;;;;;;;;;;;;;;11.92;53.23;100813.31;4997232;28;20491;-91
2022/09/19 02:18:34;;;;;;;;;;;;;;;11.82;53.13;100806.19;4996958;28;19913;-91
2022/09/19 02:21:11;;;;;;;;;;;;;;;11.75;54.12;100802.47;4998073;28;19940;-91
2022/09/19 02:23:39;;;;;;;;;;;;;;;11.72;53.75;100804.63;5007450;28;19918;-91
2022/09/19 02:26:09;;;;;;;;;;;;;;;11.63;53.64;100803.75;5006298;28;19917;-92
2022/09/19 02:28:41;;;;;;;;;;;;;;;11.60;53.78;100810.31;5002971;28;19917;-92
2022/09/19 02:31:30;;;;;;;;;;;;;;;11.58;54.31;100806.94;5004294;28;20004;-91
2022/09/19 02:34:00;;;;;;;;;;;;;;;11.52;54.29;100813.00;5005639;28;19917;-92
2022/09/19 02:36:35;;;;;;;;;;;;;;;11.47;54.24;100817.19;5005527;28;19929;-92
2022/09/19 02:39:33;;;;;;;;;;;;;;;11.38;54.53;100819.00;5005932;28;19913;-91
2022/09/19 02:42:18;;;;;;;;;;;;;;;11.26;55.45;100818.47;5010070;28;20398;-91
2022/09/19 02:45:10;;;;;;;;;;;;;;;11.32;55.25;100815.09;5001570;28;20392;-92
2022/09/19 02:47:49;;;;;;;;;;;;;;;11.17;55.98;100814.88;5029232;28;19917;-93
2022/09/19 02:50:30;;;;;;;;;;;;;;;11.20;55.83;100811.84;5008467;28;19940;-92
2022/09/19 02:53:07;;;;;;;;;;;;;;;11.16;55.87;100823.94;4986948;28;20020;-91
2022/09/19 02:55:44;;;;;;;;;;;;;;;11.19;56.03;100818.25;5007703;28;20034;-91
2022/09/19 02:58:41;;;;;;;;;;;;;;;11.14;55.88;100825.97;5003696;28;19975;-91
2022/09/19 03:07:47;;;;;;;;;;;;;;;11.01;56.58;100836.31;5030197;28;20015;-90
2022/09/19 03:10:15;;;;;;;;;;;;;;;10.99;56.64;100839.16;5002882;28;19916;-90
2022/09/19 03:13:04;;;;;;;;;;;;;;;10.97;56.42;100832.25;5022192;28;19909;-90
2022/09/19 03:16:09;;;;;;;;;;;;;;;10.93;56.61;100828.19;5011920;28;19928;-92
2022/09/19 03:18:37;;;;;;;;;;;;;;;10.93;56.96;100830.88;4994011;28;20000;-92
2022/09/19 03:21:08;;;;;;;;;;;;;;;10.93;57.02;100838.94;4997624;28;19919;-91
2022/09/19 03:24:11;;;;;;;;;;;;;;;10.92;57.28;100831.91;5013882;28;19918;-93
2022/09/19 03:26:43;;;;;;;;;;;;;;;10.89;58.72;100826.84;5015130;28;20421;-90
2022/09/19 03:29:17;;;;;;;;;;;;;;;10.85;57.85;100829.00;4997063;28;19918;-90
2022/09/19 03:31:44;;;;;;;;;;;;;;;10.87;57.79;100828.84;4997411;28;19921;-87
2022/09/19 03:34:12;;;;;;;;;;;;;;;10.85;58.12;100831.69;4997722;28;19918;-90
2022/09/19 03:36:43;;;;;;;;;;;;;;;10.92;57.40;100821.13;4979239;28;19925;-90
2022/09/19 03:39:22;;;;;;;;;;;;;;;10.97;56.63;100824.19;4999823;28;19921;-93
2022/09/19 03:41:59;;;;;;;;;;;;;;;10.85;57.31;100822.78;5020496;28;19917;-90
2022/09/19 03:44:45;;;;;;;;;;;;;;;10.88;57.81;100820.59;5023072;28;19913;-92
2022/09/19 03:47:37;;;;;;;;;;;;;;;10.91;57.20;100827.50;4990882;28;19918;-92
2022/09/19 03:50:29;;;;;;;;;;;;;;;10.91;56.90;100814.91;5020777;28;19921;-90
2022/09/19 03:53:19;;;;;;;;;;;;;;;10.97;56.36;100822.34;4993050;28;19924;-90
2022/09/19 03:56:01;;;;;;;;;;;;;;;10.94;56.80;100828.03;4998366;28;19917;-93
2022/09/19 03:58:41;;;;;;;;;;;;;;;10.98;56.47;100831.28;5004664;28;19956;-91
2022/09/19 04:01:19;;;;;;;;;;;;;;;11.06;56.70;100830.47;5011325;28;19921;-90
2022/09/19 04:03:49;;;;;;;;;;;;;;;11.01;56.17;100825.56;4986871;28;19923;-90
2022/09/19 04:06:24;;;;;;;;;;;;;;;11.09;56.00;100833.66;5019875;28;19941;-90
2022/09/19 04:08:56;;;;;;;;;;;;;;;11.10;55.88;100832.69;5011872;28;19940;-91
2022/09/19 04:11:51;;;;;;;;;;;;;;;11.17;55.44;100828.34;5020062;28;20364;-90
2022/09/19 04:14:20;;;;;;;;;;;;;;;11.26;55.70;100823.84;4956867;28;19928;-91
2022/09/19 04:16:50;;;;;;;;;;;;;;;11.24;56.00;100820.47;5024159;28;20404;-89
2022/09/19 04:19:26;;;;;;;;;;;;;;;11.32;54.85;100823.19;4985312;28;19918;-91
2022/09/19 04:22:02;;;;;;;;;;;;;;;11.37;54.78;100825.38;5024223;28;19917;-90
2022/09/19 04:24:30;;;;;;;;;;;;;;;11.33;55.47;100829.41;5024940;28;19918;-91
2022/09/19 04:26:59;;;;;;;;;;;;;;;11.41;55.42;100829.44;4977396;28;19921;-92
2022/09/19 04:29:27;;;;;;;;;;;;;;;11.55;54.90;100828.81;5006620;28;20381;-90
2022/09/19 04:31:57;;;;;;;;;;;;;;;11.49;55.10;100834.84;5006537;28;20008;-90
2022/09/19 04:34:26;;;;;;;;;;;;;;;11.47;55.31;100831.50;5016005;28;19925;-89
2022/09/19 04:36:52;;;;;;;;;;;;;;;11.41;55.17;100832.13;5027964;28;19985;-86
2022/09/19 04:39:17;;;;;;;;;;;;;;;11.49;54.63;100840.22;5035052;28;19921;-89
2022/09/19 04:41:43;;;;;;;;;;;;;;;11.46;54.80;100840.56;5000854;28;19928;-87
2022/09/19 04:44:18;;;;;;;;;;;;;;;11.50;54.35;100836.56;5024900;28;19964;-92
2022/09/19 04:46:46;;;;;;;;;;;;;;;11.46;54.50;100851.34;5021552;28;19917;-88
2022/09/19 04:49:15;;;;;;;;;;;;;;;11.52;54.50;100849.84;5000544;28;19921;-87
2022/09/19 04:51:44;;;;;;;;;;;;;;;11.53;55.25;100863.16;5000440;28;19956;-88
2022/09/19 04:54:10;;;;;;;;;;;;;;;11.66;55.09;100861.84;5016205;28;19926;-86
2022/09/19 04:56:48;;;;;;;;;;;;;;;11.68;54.70;100859.81;4996575;28;19921;-89
2022/09/19 04:59:16;;;;;;;;;;;;;;;11.82;54.48;100861.88;5009325;28;20008;-93
2022/09/19 05:01:44;;;;;;;;;;;;;;;11.79;54.02;100867.59;5011127;28;19922;-89
2022/09/19 05:04:16;;;;;;;;;;;;;;;11.85;54.19;100866.97;4961103;28;19922;-90
2022/09/19 05:06:42;;;;;;;;;;;;;;;11.88;53.95;100872.06;4984884;28;19909;-90
2022/09/19 05:09:08;;;;;;;;;;;;;;;11.88;54.63;100872.06;5005663;28;19960;-91
2022/09/19 05:11:42;;;;;;;;;;;;;;;12.02;54.07;100874.09;4977765;28;19980;-91
2022/09/19 05:14:10;;;;;;;;;;;;;;;12.08;54.24;100867.22;5008470;28;19933;-90
2022/09/19 05:16:51;;;;;;;;;;;;;;;12.11;53.90;100871.44;4989258;28;19917;-89
2022/09/19 05:19:21;;;;;;;;;;;;;;;12.20;53.65;100865.06;5019369;28;19922;-87
2022/09/19 05:21:54;;;;;;;;;;;;;;;12.33;53.71;100864.53;5013966;28;19924;-89
2022/09/19 05:24:25;;;;;;;;;;;;;;;12.37;53.32;100866.75;5003986;28;20008;-89
2022/09/19 05:26:54;;;;;;;;;;;;;;;12.50;53.58;100865.38;5002078;28;20346;-90
2022/09/19 05:29:23;;;;;;;;;;;;;;;12.65;52.91;100874.50;4993960;28;19972;-89
2022/09/19 05:31:55;;;;;;;;;;;;;;;14.06;50.18;100865.78;4996031;28;19914;-91
2022/09/19 05:34:26;;;;;;;;;;;;;;;17.42;41.95;100856.84;4976342;28;20001;-88
2022/09/19 05:36:52;;;;;;;;;;;;;;;20.13;36.46;100855.31;4982185;28;19917;-87
2022/09/19 05:39:23;;;;;;;;;;;;;;;22.14;32.10;100848.47;4964475;28;20436;-87
2022/09/19 05:41:52;;;;;;;;;;;;;;;23.89;29.00;100847.91;4979678;28;19921;-90
2022/09/19 05:44:23;;;;;;;;;;;;;;;25.94;26.23;100853.84;4986410;28;19933;-88
2022/09/19 05:47:13;;;;;;;;;;;;;;;27.55;23.87;100862.03;4968549;28;19920;-94
2022/09/19 05:49:39;;;;;;;;;;;;;;;28.95;21.71;100855.69;4982063;28;19918;-89
2022/09/19 05:54:49;;;;;;;;;;;;;;;30.62;20.03;100860.72;4994139;28;19936;-90
2022/09/19 05:57:18;;;;;;;;;;;;;;;30.81;19.17;100855.31;4966711;28;19960;-91
2022/09/19 05:59:43;;;;;;;;;;;;;;;31.21;18.48;100852.41;4982440;28;19953;-90
2022/09/19 06:02:10;;;;;;;;;;;;;;;32.03;17.94;100852.25;5001664;28;19995;-93
2022/09/19 06:04:36;;;;;;;;;;;;;;;33.07;17.52;100861.41;4998773;28;19937;-90
2022/09/19 06:07:04;;;;;;;;;;;;;;;32.92;17.12;100851.38;4995588;28;19913;-88
2022/09/19 06:09:36;;;;;;;;;;;;;;;33.64;16.47;100849.97;4996528;28;19972;-91
2022/09/19 06:12:02;;;;;;;;;;;;;;;34.34;16.06;100856.22;5015030;28;19936;-91
2022/09/19 06:14:32;;;;;;;;;;;;;;;35.00;15.22;100857.31;4999307;28;20437;-87
2022/09/19 06:16:59;;;;;;;;;;;;;;;36.24;14.30;100848.97;5000655;28;19920;-91
2022/09/19 06:19:33;;;;;;;;;;;;;;;36.14;14.32;100850.13;5001985;28;19971;-89
2022/09/19 06:22:10;;;;;;;;;;;;;;;35.63;14.56;100857.28;5010667;28;20026;-89
2022/09/19 06:24:38;;;;;;;;;;;;;;;36.23;13.60;100862.16;5017043;28;19913;-89
2022/09/19 06:27:04;;;;;;;;;;;;;;;37.08;12.75;100855.09;5014565;28;19966;-90
2022/09/19 06:29:34;;;;;;;;;;;;;;;37.54;13.08;100862.66;5013988;28;19913;-91
2022/09/19 06:32:02;;;;;;;;;;;;;;;37.11;12.55;100860.03;4995205;28;19918;-89
2022/09/19 06:34:29;;;;;;;;;;;;;;;37.23;12.61;100862.13;4996223;28;19959;-87
2022/09/19 06:36:54;;;;;;;;;;;;;;;37.71;12.95;100864.53;4993775;28;19987;-89
2022/09/19 06:39:23;;;;;;;;;;;;;;;38.13;11.84;100863.75;4992989;28;20401;-88
2022/09/19 06:41:48;;;;;;;;;;;;;;;37.07;12.54;100867.47;4991546;28;19913;-88
2022/09/19 06:44:14;;;;;;;;;;;;;;;37.73;11.70;100858.59;5012521;28;19913;-88
2022/09/19 06:46:40;;;;;;;;;;;;;;;38.19;11.80;100870.81;4995413;28;19921;-88
2022/09/19 06:49:09;;;;;;;;;;;;;;;38.12;11.59;100859.28;4992990;28;19939;-88
2022/09/19 06:51:37;;;;;;;;;;;;;;;38.75;11.33;100864.81;5011094;28;19988;-90
2022/09/19 06:54:03;;;;;;;;;;;;;;;37.81;12.13;100863.28;4984874;28;20270;-88
2022/09/19 06:56:29;;;;;;;;;;;;;;;38.69;11.67;100864.25;4976790;28;19948;-87
2022/09/19 06:59:02;;;;;;;;;;;;;;;39.07;11.43;100860.34;4997608;28;19921;-88
2022/09/19 07:01:27;;;;;;;;;;;;;;;38.60;11.41;100861.50;5020104;28;19949;-87
2022/09/19 07:03:53;;;;;;;;;;;;;;;37.47;12.37;100856.72;5012968;28;19986;-88
2022/09/19 07:06:19;;;;;;;;;;;;;;;37.63;12.06;100858.97;5008242;28;20004;-88
2022/09/19 07:08:48;;;;;;;;;;;;;;;36.76;12.06;100855.34;5015524;28;19978;-91
2022/09/19 07:11:15;;;;;;;;;;;;;;;38.20;10.80;100856.41;4999149;28;19979;-92
2022/09/19 07:13:40;;;;;;;;;;;;;;;37.07;10.83;100857.09;5015482;28;19964;-88
2022/09/19 07:16:24;;;;;;;;;;;;;;;37.47;11.03;100847.50;5016343;28;19963;-91
2022/09/19 07:18:57;;;;;;;;;;;;;;;38.72;9.89;100857.91;5000679;28;19917;-88
2022/09/19 07:21:48;;;;;;;;;;;;;;;37.09;10.76;100860.38;5024058;28;19917;-96
2022/09/19 07:24:45;;;;;;;;;;;;;;;38.48;9.52;100860.66;5010053;28;19917;-93
2022/09/19 07:27:32;;;;;;;;;;;;;;;38.41;9.14;100862.00;5024507;28;20040;-93
2022/09/19 07:30:00;;;;;;;;;;;;;;;37.66;9.53;100861.09;4998949;28;20317;-89
2022/09/19 07:32:36;;;;;;;;;;;;;;;38.36;8.93;100856.59;5016436;28;19976;-89
2022/09/19 07:35:36;;;;;;;;;;;;;;;37.22;9.65;100849.28;5016424;28;19956;-93
2022/09/19 07:38:03;;;;;;;;;;;;;;;38.44;9.32;100854.88;4955406;28;19941;-89
2022/09/19 07:40:29;;;;;;;;;;;;;;;38.20;9.57;100861.22;4945631;28;20022;-90
2022/09/19 07:43:06;;;;;;;;;;;;;;;38.14;9.11;100859.78;5003313;28;19933;-88
2022/09/19 07:45:32;;;;;;;;;;;;;;;37.35;9.56;100859.44;5021707;28;19940;-92
2022/09/19 07:48:07;;;;;;;;;;;;;;;38.06;9.13;100855.88;5010583;28;19918;-88
2022/09/19 07:50:45;;;;;;;;;;;;;;;38.60;8.76;100852.28;5023873;28;19991;-87
2022/09/19 07:53:15;;;;;;;;;;;;;;;38.90;8.44;100849.31;5012066;28;19917;-92
2022/09/19 07:55:44;;;;;;;;;;;;;;;38.55;8.54;100858.13;5031413;28;19917;-92
2022/09/19 07:58:24;;;;;;;;;;;;;;;38.22;8.75;100853.28;5025351;28;20001;-95
2022/09/19 08:00:53;;;;;;;;;;;;;;;38.60;8.41;100849.47;4999995;28;20024;-91
2022/09/19 08:03:44;;;;;;;;;;;;;;;38.28;10.68;100840.66;4996541;28;20492;-94
2022/09/19 08:06:17;;;;;;;;;;;;;;;36.93;12.05;100842.44;5016233;28;19921;-92
2022/09/19 08:09:00;;;;;;;;;;;;;;;37.77;11.50;100837.94;4996234;28;19921;-92
2022/09/19 08:14:50;;;;;;;;;;;;;;;36.68;11.93;100830.16;5014937;28;19929;-89
2022/09/19 08:17:21;;;;;;;;;;;;;;;36.75;10.64;100827.66;5019444;28;19928;-92
2022/09/19 08:19:57;;;;;;;;;;;;;;;35.96;11.31;100826.06;5008425;28;19902;-90
2022/09/19 08:22:25;;;;;;;;;;;;;;;35.18;13.07;100779.22;5137910;23;20043;-95
2022/09/19 08:24:51;;;;;;;;;;;;;;;35.22;13.42;100822.13;5038468;28;19921;-91
2022/09/19 08:27:41;;;;;;;;;;;;;;;;;;;;;
2022/09/19 08:30:17;;;;;;;;;;;;;;;36.16;12.37;100822.63;5022476;28;20430;-92
2022/09/19 08:32:45;;;;;;;;;;;;;;;36.14;12.37;100822.16;5031495;28;19943;-93
2022/09/19 08:35:15;;;;;;;;;;;;;;;35.75;11.40;100814.69;5017065;28;20019;-93
2022/09/19 08:37:43;;;;;;;;;;;;;;;34.83;12.78;100813.38;5035050;28;19921;-91
2022/09/19 08:40:28;;;;;;;;;;;;;;;35.20;12.39;100810.44;5012687;28;19921;-92
2022/09/19 08:43:12;;;;;;;;;;;;;;;35.72;11.79;100805.81;5022819;28;19917;-93
2022/09/19 08:46:01;;;;;;;;;;;;;;;36.36;11.30;100801.53;5022612;28;19921;-91
2022/09/19 08:48:32;;;;;;;;;;;;;;;36.42;10.54;100810.59;5032324;28;19913;-90
2022/09/19 08:51:20;;;;;;;;;;;;;;;36.99;9.99;100807.47;5035256;28;19917;-94
2022/09/19 08:54:04;;;;;;;;;;;;;;;38.46;9.27;100818.03;5032091;28;19916;-95
2022/09/19 08:56:31;;;;;;;;;;;;;;;38.11;9.52;100805.16;5020424;28;19923;-92
2022/09/19 08:59:01;;;;;;;;;;;;;;;37.93;9.52;100801.66;5029497;28;20011;-90
2022/09/19 09:01:32;;;;;;;;;;;;;;;38.06;9.91;100799.75;5028239;28;19913;-93
2022/09/19 09:04:23;;;;;;;;;;;;;;;37.57;10.21;100800.28;5035504;28;19921;-89
2022/09/19 09:07:16;;;;;;;;;;;;;;;38.49;9.19;100800.50;5031203;28;20011;-90
2022/09/19 09:10:00;;;;;;;;;;;;;;;39.04;8.86;100797.22;5032884;28;19956;-92
2022/09/19 09:12:40;;;;;;;;;;;;;;;40.15;8.36;100793.41;5027089;28;19920;-93
2022/09/19 09:15:24;;;;;;;;;;;;;;;41.71;7.33;100793.00;5028380;28;19955;-94
2022/09/19 09:18:13;;;;;;;;;;;;;;;40.35;7.74;100788.78;5050666;28;19924;-92
2022/09/19 09:21:03;;;;;;;;;;;;;;;41.42;7.09;100787.88;5055991;28;20067;-92
2022/09/19 09:23:36;;;;;;;;;;;;;;;40.47;7.36;100783.88;5056734;28;19909;-93
2022/09/19 09:26:23;;;;;;;;;;;;;;;39.80;7.75;100779.91;5072805;28;19976;-93
2022/09/19 09:29:08;;;;;;;;;;;;;;;40.68;7.22;100780.00;5046112;28;19901;-93
2022/09/19 09:31:38;;;;;;;;;;;;;;;41.49;7.27;100773.91;5058187;28;19905;-93
2022/09/19 09:34:20;;;;;;;;;;;;;;;40.03;7.40;100769.75;5053508;28;19921;-92
2022/09/19 09:36:51;;;;;;;;;;;;;;;39.26;8.23;100767.81;5032156;28;19917;-94
2022/09/19 09:39:22;;;;;;;;;;;;;;;41.25;7.33;100770.16;5030129;28;19921;-93
2022/09/19 09:41:57;;;;;;;;;;;;;;;41.79;7.09;100770.56;5034421;28;19992;-91
2022/09/19 09:44:38;;;;;;;;;;;;;;;42.29;6.27;100768.78;5038848;28;19913;-93
2022/09/19 09:47:06;;;;;;;;;;;;;;;40.63;7.20;100767.00;5042572;28;19971;-92
2022/09/19 09:49:35;;;;;;;;;;;;;;;40.35;7.26;100766.25;5041628;28;20028;-93
2022/09/19 09:52:06;;;;;;;;;;;;;;;40.69;6.87;100759.91;5009086;28;19936;-92
2022/09/19 09:57:24;;;;;;;;;;;;;;;39.76;7.52;100750.84;5027987;28;20012;-91
2022/09/19 10:03:43;;;;;;;;;;;;;;;38.19;8.04;100752.94;4981302;28;19957;-93
2022/09/19 10:06:31;;;;;;;;;;;;;;;39.90;7.41;100745.69;5036253;28;19924;-92
2022/09/19 10:09:17;;;;;;;;;;;;;;;40.57;6.98;100745.09;5044703;28;19912;-91
2022/09/19 10:11:48;;;;;;;;;;;;;;;40.82;6.64;100740.94;5034072;28;19959;-92
2022/09/19 10:14:28;;;;;;;;;;;;;;;40.05;7.01;100742.06;5030869;28;19916;-91
2022/09/19 10:17:01;;;;;;;;;;;;;;;41.02;6.52;100743.81;5045299;28;20022;-92
2022/09/19 10:19:41;;;;;;;;;;;;;;;42.64;6.09;100737.56;5028764;28;20326;-92
2022/09/19 10:22:17;;;;;;;;;;;;;;;43.33;5.64;100734.59;5034106;28;19924;-92
2022/09/19 10:25:32;;;;;;;;;;;;;;;;;;;;;
2022/09/19 10:28:19;;;;;;;;;;;;;;;39.31;9.98;100735.00;4950940;28;19927;-93
2022/09/19 10:45:09;;;;;;;;;;;;;;;32.80;13.79;100736.88;5071734;28;19947;-95
2022/09/19 10:48:07;;;;;;;;;;;;;;;33.76;13.48;100735.13;5047594;28;19916;-95
2022/09/19 10:50:51;;;;;;;;;;;;;;;34.11;13.37;100719.50;5042120;28;19927;-93
2022/09/19 10:53:40;;;;;;;;;;;;;;;35.58;12.81;100718.44;4986816;28;19953;-91
2022/09/19 11:05:00;;;;;;;;;;;;;;;35.68;12.48;100698.59;5061594;28;19982;-90
2022/09/19 11:07:30;;;;;;;;;;;;;;;33.60;15.81;100706.81;5065148;28;19916;-88
2022/09/19 11:10:09;;;;;;;;;;;;;;;32.76;17.14;100713.59;5046054;28;19972;-89
2022/09/19 11:12:39;;;;;;;;;;;;;;;30.98;17.95;100726.38;5069536;28;19916;-87
2022/09/19 11:15:05;;;;;;;;;;;;;;;31.12;17.82;100707.88;5066489;28;19921;-90
2022/09/19 11:17:41;;;;;;;;;;;;;;;29.81;18.64;100698.63;5072023;28;20003;-89
2022/09/19 11:20:18;;;;;;;;;;;;;;;28.80;20.24;100710.72;5048038;28;19917;-87
2022/09/19 11:23:10;;;;;;;;;;;;;;;28.61;20.21;100704.13;5054998;28;19916;-88
2022/09/19 11:25:58;;;;;;;;;;;;;;;27.83;21.32;100704.44;5050209;28;19923;-90
2022/09/19 11:28:44;;;;;;;;;;;;;;;28.06;21.38;100708.63;5040338;28;19917;-89
2022/09/19 11:31:28;;;;;;;;;;;;;;;27.15;22.70;100695.13;5056283;28;20380;-89
2022/09/19 11:34:27;;;;;;;;;;;;;;;27.29;22.20;100705.72;5027984;28;19990;-88
2022/09/19 11:37:02;;;;;;;;;;;;;;;26.07;23.52;100690.09;5003517;28;19917;-88
2022/09/19 11:39:33;;;;;;;;;;;;;;;26.03;25.13;100702.72;5022568;28;20325;-91
2022/09/19 11:42:20;;;;;;;;;;;;;;;25.88;26.23;100701.50;5043613;28;19924;-89
2022/09/19 11:45:14;;;;;;;;;;;;;;;26.72;24.54;100688.91;5035904;28;19913;-88
2022/09/19 11:48:01;;;;;;;;;;;;;;;25.82;25.83;100691.50;5059348;28;19913;-88
2022/09/19 11:50:29;;;;;;;;;;;;;;;24.95;27.85;100693.28;5056581;28;19935;-85
2022/09/19 11:53:13;;;;;;;;;;;;;;;23.90;29.80;100689.50;5055279;28;20015;-88
2022/09/19 11:55:47;;;;;;;;;;;;;;;23.26;31.32;100690.53;5035819;28;19939;-89
2022/09/19 11:58:54;;;;;;;;;;;;;;;22.93;32.14;100683.78;5050288;28;19971;-92
2022/09/19 12:01:35;;;;;;;;;;;;;;;23.25;32.53;100688.88;5032726;28;20054;-89
2022/09/19 12:04:13;;;;;;;;;;;;;;;24.06;31.11;100677.69;5034059;28;20351;-90
2022/09/19 12:06:59;;;;;;;;;;;;;;;24.11;29.75;100686.00;5054672;28;20739;-91
2022/09/19 12:09:37;;;;;;;;;;;;;;;23.19;30.67;100689.84;5061625;28;19935;-91
2022/09/19 12:12:11;;;;;;;;;;;;;;;23.04;31.47;100684.03;5032814;28;19921;-92
2022/09/19 12:14:46;;;;;;;;;;;;;;;23.66;30.79;100689.63;5035202;28;19984;-92
2022/09/19 12:17:32;;;;;;;;;;;;;;;22.88;33.27;100686.44;5032122;28;19923;-91
2022/09/19 12:20:17;;;;;;;;;;;;;;;22.86;32.47;100690.50;5055240;28;19931;-91
2022/09/19 12:22:57;;;;;;;;;;;;;;;22.64;32.73;100688.41;5057366;28;19962;-92
2022/09/19 12:25:30;;;;;;;;;;;;;;;22.13;33.90;100689.91;5034133;28;19968;-94
2022/09/19 12:28:31;;;;;;;;;;;;;;;22.40;33.49;100684.00;5071735;28;19909;-88
2022/09/19 12:31:03;;;;;;;;;;;;;;;22.32;33.57;100680.53;5068468;28;19905;-91
2022/09/19 12:33:39;;;;;;;;;;;;;;;22.72;33.47;100682.53;5080057;23;19908;-91
2022/09/19 12:36:08;;;;;;;;;;;;;;;21.69;35.22;100681.16;5076527;28;19924;-93
2022/09/19 12:38:40;;;;;;;;;;;;;;;21.45;36.34;100681.09;5056003;28;19920;-90
2022/09/19 12:41:24;;;;;;;;;;;;;;;21.25;36.72;100678.56;5030695;28;19916;-93
2022/09/19 12:44:19;;;;;;;;;;;;;;;21.02;36.95;100673.81;5054397;28;19917;-93
2022/09/19 12:47:04;;;;;;;;;;;;;;;21.06;37.36;100671.47;5044100;28;19936;-91
2022/09/19 12:49:37;;;;;;;;;;;;;;;21.06;37.09;100668.75;5034912;28;20000;-90
2022/09/19 12:52:25;;;;;;;;;;;;;;;21.10;37.47;100664.50;5036813;28;19939;-90
2022/09/19 12:55:03;;;;;;;;;;;;;;;21.06;36.54;100666.03;5038427;28;19920;-92
2022/09/19 12:57:58;;;;;;;;;;;;;;;20.82;36.99;100665.88;5025771;28;19978;-91
2022/09/19 13:00:24;;;;;;;;;;;;;;;20.64;37.11;100664.00;5021896;28;19920;-89
2022/09/19 13:03:00;;;;;;;;;;;;;;;20.57;37.12;100659.66;5040876;28;20316;-89
2022/09/19 13:05:46;;;;;;;;;;;;;;;20.62;37.36;100666.09;5037001;28;20039;-92
2022/09/19 13:08:21;;;;;;;;;;;;;;;20.69;37.18;100660.56;5015713;28;19916;-91
2022/09/19 13:11:00;;;;;;;;;;;;;;;20.60;36.67;100656.47;5058020;28;19916;-92
2022/09/19 13:13:59;;;;;;;;;;;;;;;20.42;36.08;100658.13;5059159;28;19924;-93
2022/09/19 13:23:30;;;;;;;;;;;;;;;20.21;36.82;100659.38;4963960;28;19926;-94
2022/09/19 13:25:20;;;;;;;;;;;;;;;20.17;36.22;100657.31;5056292;28;19916;-86
2022/09/19 13:28:17;;;;;;;;;;;;;;;19.84;37.05;100657.59;5054580;28;19927;-88
2022/09/19 13:31:05;;;;;;;;;;;;;;;20.15;36.59;100653.97;5048747;28;19956;-89
2022/09/19 13:33:49;;;;;;;;;;;;;;;20.23;36.61;100659.16;5050752;28;19952;-90
2022/09/19 13:36:27;;;;;;;;;;;;;;;20.13;36.84;100650.63;5056992;28;19920;-88
2022/09/19 13:39:03;;;;;;;;;;;;;;;20.13;36.91;100645.16;5074700;28;20017;-87
2022/09/19 13:41:47;;;;;;;;;;;;;;;20.42;35.98;100647.19;5074866;28;19912;-88
2022/09/19 13:44:22;;;;;;;;;;;;;;;20.42;35.17;100636.28;5090443;28;19913;-85
2022/09/19 13:46:58;;;;;;;;;;;;;;;20.19;34.55;100639.66;5071832;28;19928;-85
2022/09/19 13:49:43;;;;;;;;;;;;;;;20.36;35.28;100633.59;5038996;28;19983;-87
2022/09/19 13:52:09;;;;;;;;;;;;;;;20.25;35.80;100632.44;5074309;28;20423;-89
2022/09/19 13:54:44;;;;;;;;;;;;;;;20.20;35.19;100632.28;5051771;28;19909;-86
2022/09/19 13:57:17;;;;;;;;;;;;;;;20.29;35.86;100630.09;5063956;28;19926;-89
2022/09/19 13:59:57;;;;;;;;;;;;;;;19.84;36.15;100627.59;5071650;28;19916;-88
2022/09/19 14:02:27;;;;;;;;;;;;;;;19.87;36.25;100625.25;5072278;28;20387;-88
2022/09/19 14:05:26;;;;;;;;;;;;;;;20.03;35.56;100619.22;5058600;28;19912;-87
2022/09/19 14:07:57;;;;;;;;;;;;;;;19.91;35.62;100631.94;4992283;28;20476;-87
2022/09/19 14:10:25;;;;;;;;;;;;;;;19.88;35.97;100629.66;4996570;28;20011;-87
2022/09/19 14:12:53;;;;;;;;;;;;;;;19.95;36.34;100630.44;5072437;28;19916;-87
2022/09/19 14:15:40;;;;;;;;;;;;;;;19.80;36.18;100629.94;5039172;28;19919;-88
2022/09/19 14:18:20;;;;;;;;;;;;;;;19.84;35.34;100628.44;5073628;28;20381;-87
2022/09/19 14:21:11;;;;;;;;;;;;;;;19.81;35.83;100628.88;5075054;28;19920;-87
2022/09/19 14:23:41;;;;;;;;;;;;;;;19.98;36.31;100624.53;5073134;28;19916;-89
2022/09/19 14:26:10;;;;;;;;;;;;;;;19.78;37.32;100626.59;5047672;28;20364;-87